Time;durP1;ratioP1;P1;durP2;ratioP2;P2;SDS_P1;SDS_P2;PMS_P1;PMS_P2;Temp;Humidity;BMP_temperature;BMP_pressure;BME280_temperature;BME280_humidity;BME280_pressure;Samples;Min_cycle;Max_cycle;Signal;HPM_P1;HPM_P2
2022/01/28 00:00:37;;;;;;;25.05;3.33;;;4.70;99.90;;;;;;5026029;28;20076;-40
2022/01/28 00:03:07;;;;;;;25.25;3.05;;;4.70;99.90;;;;;;5021249;28;20124;-40
2022/01/28 00:05:36;;;;;;;22.05;2.97;;;4.70;99.90;;;;;;5018942;28;20045;-40
2022/01/28 00:08:03;;;;;;;22.83;3.20;;;4.70;99.90;;;;;;5031092;28;20060;-39
2022/01/28 00:10:30;;;;;;;24.73;3.70;;;4.70;99.90;;;;;;5023738;28;20041;-40
2022/01/28 00:13:14;;;;;;;21.13;3.10;;;4.70;99.90;;;;;;5019747;28;20053;-40
2022/01/28 00:15:47;;;;;;;19.42;2.65;;;4.70;99.90;;;;;;5015547;28;20077;-40
2022/01/28 00:18:36;;;;;;;15.27;2.50;;;4.70;99.90;;;;;;5023778;28;20512;-40
2022/01/28 00:38:04;;;;;;;23.55;3.58;;;4.60;99.90;;;;;;5019253;28;20045;-39
2022/01/28 00:40:32;;;;;;;19.42;2.72;;;4.60;99.90;;;;;;5018568;28;20135;-40
2022/01/28 00:42:58;;;;;;;25.73;3.15;;;4.60;99.90;;;;;;5021155;28;20405;-40
2022/01/28 00:45:25;;;;;;;24.98;3.17;;;4.60;99.90;;;;;;5023347;28;20505;-39
2022/01/28 00:47:52;;;;;;;14.57;2.60;;;4.70;99.90;;;;;;5026308;28;20133;-40
2022/01/28 00:50:19;;;;;;;23.40;3.40;;;4.70;99.90;;;;;;5026146;28;20046;-40
2022/01/28 00:52:47;;;;;;;21.10;3.35;;;4.70;99.90;;;;;;5023551;28;20045;-40
2022/01/28 00:55:13;;;;;;;20.08;2.95;;;4.70;99.90;;;;;;5029831;28;20330;-40
2022/01/28 00:57:40;;;;;;;26.92;3.25;;;4.70;99.90;;;;;;5025104;28;20124;-40
2022/01/28 01:00:08;;;;;;;22.45;3.05;;;4.70;99.90;;;;;;5032309;28;20059;-40
2022/01/28 01:02:35;;;;;;;27.38;3.33;;;4.70;99.90;;;;;;5018083;28;20050;-40
2022/01/28 01:05:01;;;;;;;26.50;3.58;;;4.70;99.90;;;;;;5015877;28;20053;-39
2022/01/28 01:07:30;;;;;;;24.60;3.50;;;4.60;99.90;;;;;;5019120;28;20525;-40
2022/01/28 01:09:58;;;;;;;25.63;4.18;;;4.60;99.90;;;;;;5033204;28;20041;-40
2022/01/28 01:12:27;;;;;;;27.70;3.30;;;4.60;99.90;;;;;;5023444;28;20041;-39
2022/01/28 01:14:53;;;;;;;30.77;4.85;;;4.60;99.90;;;;;;5032199;28;20481;-39
2022/01/28 01:17:28;;;;;;;29.17;3.33;;;4.60;99.90;;;;;;5027288;28;20143;-39
2022/01/28 01:20:09;;;;;;;34.30;4.65;;;4.50;99.90;;;;;;5026006;28;20045;-39
2022/01/28 01:22:38;;;;;;;27.85;3.92;;;4.60;99.90;;;;;;5026018;28;20057;-39
2022/01/28 01:25:15;;;;;;;30.05;3.83;;;4.60;99.90;;;;;;5024797;28;20056;-39
2022/01/28 01:27:42;;;;;;;37.05;4.30;;;4.50;99.90;;;;;;5026422;28;20069;-39
2022/01/28 01:30:12;;;;;;;25.13;3.67;;;4.50;99.90;;;;;;5030903;28;20049;-39
2022/01/28 01:32:39;;;;;;;29.45;3.90;;;4.60;99.90;;;;;;5030115;28;20045;-39
2022/01/28 01:35:07;;;;;;;21.55;3.20;;;4.60;99.90;;;;;;5023761;28;20133;-40
2022/01/28 01:37:33;;;;;;;25.80;4.40;;;4.60;99.90;;;;;;5024989;28;20045;-39
2022/01/28 01:40:00;;;;;;;29.65;3.42;;;4.60;99.90;;;;;;5028441;28;20049;-38
2022/01/28 01:42:36;;;;;;;18.88;2.70;;;4.60;99.90;;;;;;5022708;28;20056;-39
2022/01/28 01:53:32;;;;;;;23.65;4.32;;;4.60;99.90;;;;;;5029587;28;20057;-39
2022/01/28 01:55:59;;;;;;;19.52;2.50;;;4.70;99.90;;;;;;5022108;28;20053;-39
2022/01/28 01:58:31;;;;;;;24.10;3.35;;;4.60;99.90;;;;;;5029925;28;20132;-38
2022/01/28 02:00:57;;;;;;;;;;;4.60;99.90;;;;;;5020907;28;20057;-39
2022/01/28 02:03:24;;;;;;;20.65;3.03;;;4.60;99.90;;;;;;5015301;28;19927;-39
2022/01/28 02:05:51;;;;;;;20.20;2.78;;;4.50;99.90;;;;;;5023868;28;20401;-40
2022/01/28 02:08:18;;;;;;;21.92;3.95;;;4.60;99.90;;;;;;5030207;28;20053;-39
2022/01/28 02:10:44;;;;;;;28.80;3.30;;;4.60;99.90;;;;;;5027847;28;20045;-40
2022/01/28 02:13:11;;;;;;;34.47;5.15;;;4.70;99.90;;;;;;5031208;28;20051;-39
2022/01/28 02:15:39;;;;;;;24.92;2.95;;;4.70;99.90;;;;;;5028110;28;20061;-40
2022/01/28 02:18:06;;;;;;;26.92;4.07;;;4.70;99.90;;;;;;5029803;28;20519;-39
2022/01/28 02:20:36;;;;;;;28.40;4.72;;;4.70;99.90;;;;;;5022799;28;20073;-40
2022/01/28 02:23:03;;;;;;;30.05;4.13;;;4.70;99.90;;;;;;5019462;28;20405;-40
2022/01/28 02:25:31;;;;;;;32.65;4.22;;;4.70;99.90;;;;;;5022320;28;20109;-40
2022/01/28 02:28:01;;;;;;;28.23;4.28;;;4.70;99.90;;;;;;5020653;28;20054;-39
2022/01/28 02:30:27;;;;;;;27.70;3.70;;;4.70;99.90;;;;;;5013806;28;20046;-40
2022/01/28 02:32:58;;;;;;;28.23;4.15;;;4.70;99.90;;;;;;5021204;28;20042;-40
2022/01/28 02:35:25;;;;;;;21.27;3.47;;;4.70;99.90;;;;;;5031374;28;20046;-40
2022/01/28 02:37:53;;;;;;;29.17;3.85;;;4.70;99.90;;;;;;5014260;28;20284;-40
2022/01/28 02:40:20;;;;;;;23.92;3.50;;;4.70;99.90;;;;;;5028483;28;20128;-39
2022/01/28 02:42:56;;;;;;;30.50;3.97;;;4.70;99.90;;;;;;5028245;28;20572;-40
2022/01/28 02:45:31;;;;;;;25.58;3.42;;;4.70;99.90;;;;;;5028741;28;20060;-39
2022/01/28 02:48:01;;;;;;;26.65;4.75;;;4.70;99.90;;;;;;5025109;28;20049;-39
2022/01/28 02:50:31;;;;;;;33.47;4.15;;;4.70;99.90;;;;;;5029664;28;20107;-39
2022/01/28 02:53:05;;;;;;;32.55;3.78;;;4.60;99.90;;;;;;5024954;28;20092;-40
2022/01/28 02:55:37;;;;;;;28.77;3.85;;;4.60;99.90;;;;;;5030447;28;20049;-40
2022/01/28 02:58:16;;;;;;;24.75;3.35;;;4.60;99.90;;;;;;5018598;28;20057;-40
2022/01/28 03:00:43;;;;;;;26.40;4.40;;;4.60;99.90;;;;;;5023155;28;20120;-40
2022/01/28 03:03:10;;;;;;;22.00;3.50;;;4.50;99.90;;;;;;5023685;28;20136;-40
2022/01/28 03:05:36;;;;;;;26.08;3.88;;;4.50;99.90;;;;;;5023125;28;20045;-40
2022/01/28 03:08:05;;;;;;;26.63;3.47;;;4.40;99.90;;;;;;5023517;28;20079;-40
2022/01/28 03:10:42;;;;;;;28.83;4.00;;;4.40;99.90;;;;;;5026235;28;20077;-39
2022/01/28 03:13:29;;;;;;;24.02;3.28;;;4.40;99.90;;;;;;5030345;28;20053;-40
2022/01/28 03:16:06;;;;;;;29.38;3.63;;;4.40;99.90;;;;;;5029059;28;20049;-40
2022/01/28 03:18:42;;;;;;;28.15;4.15;;;4.30;99.90;;;;;;5015123;28;20397;-40
2022/01/28 03:21:20;;;;;;;31.85;3.63;;;4.30;99.90;;;;;;5025889;28;20042;-40
2022/01/28 03:23:48;;;;;;;29.60;4.68;;;4.30;99.90;;;;;;5018838;28;20049;-40
2022/01/28 03:26:15;;;;;;;33.50;3.95;;;4.30;99.90;;;;;;5028270;28;20558;-40
2022/01/28 03:28:42;;;;;;;29.73;4.13;;;4.30;99.90;;;;;;5024249;28;20058;-40
2022/01/28 03:31:09;;;;;;;32.65;3.83;;;4.30;99.90;;;;;;5029278;28;20478;-40
2022/01/28 03:33:35;;;;;;;27.27;3.40;;;4.30;99.90;;;;;;5028789;28;20375;-40
2022/01/28 03:36:04;;;;;;;24.30;3.20;;;4.30;99.90;;;;;;5030110;28;20061;-40
2022/01/28 03:38:30;;;;;;;30.50;4.13;;;4.30;99.90;;;;;;5024327;28;20103;-40
2022/01/28 03:40:58;;;;;;;28.90;4.10;;;4.30;99.90;;;;;;5019844;28;20072;-40
2022/01/28 03:43:25;;;;;;;35.85;4.15;;;4.30;99.90;;;;;;5026859;28;20144;-40
2022/01/28 03:45:52;;;;;;;28.42;4.22;;;4.30;99.90;;;;;;5024851;28;20081;-40
2022/01/28 03:48:19;;;;;;;34.92;4.03;;;4.40;99.90;;;;;;5011669;28;20410;-40
2022/01/28 03:50:45;;;;;;;28.23;4.15;;;4.30;99.90;;;;;;5022049;28;20468;-40
2022/01/28 03:53:12;;;;;;;25.25;3.58;;;4.30;99.90;;;;;;5031484;28;20132;-40
2022/01/28 03:55:39;;;;;;;28.65;3.85;;;4.30;99.90;;;;;;5019462;28;20048;-40
2022/01/28 03:58:07;;;;;;;37.22;4.78;;;4.30;99.90;;;;;;5016111;28;20434;-39
2022/01/28 04:00:33;;;;;;;36.40;4.28;;;4.30;99.90;;;;;;5025424;28;20049;-39
2022/01/28 04:03:07;;;;;;;31.55;3.60;;;4.20;99.90;;;;;;5027132;28;20061;-40
2022/01/28 04:13:49;;;;;;;38.47;5.30;;;4.20;99.90;;;;;;5026464;28;20064;-39
2022/01/28 04:16:29;;;;;;;36.80;4.35;;;4.30;99.90;;;;;;5019664;28;20330;-40
2022/01/28 04:18:57;;;;;;;26.35;4.03;;;4.30;99.90;;;;;;5020580;28;20482;-40
2022/01/28 04:21:23;;;;;;;37.72;4.93;;;4.30;99.90;;;;;;5024162;28;20405;-40
2022/01/28 04:23:50;;;;;;;33.53;4.88;;;4.30;99.90;;;;;;5024795;28;20049;-40
2022/01/28 04:26:17;;;;;;;32.63;4.70;;;4.30;99.90;;;;;;5033155;28;20051;-40
2022/01/28 04:28:45;;;;;;;30.17;4.50;;;4.30;99.90;;;;;;5034722;28;20052;-40
2022/01/28 04:31:11;;;;;;;30.23;4.88;;;4.30;99.90;;;;;;5016200;28;20054;-40
2022/01/28 04:33:38;;;;;;;25.30;4.28;;;4.30;99.90;;;;;;5024678;28;20152;-41
2022/01/28 04:36:08;;;;;;;30.65;4.50;;;4.30;99.90;;;;;;5030816;28;20057;-40
2022/01/28 04:38:41;;;;;;;34.83;4.45;;;4.40;99.90;;;;;;5031811;28;20521;-40
2022/01/28 04:41:15;;;;;;;31.33;4.78;;;4.40;99.90;;;;;;5029860;28;20041;-40
2022/01/28 04:43:47;;;;;;;31.65;4.28;;;4.40;99.90;;;;;;5032027;28;20068;-40
2022/01/28 04:46:25;;;;;;;38.40;4.65;;;4.40;99.90;;;;;;5019488;28;20061;-40
2022/01/28 04:48:59;;;;;;;39.15;6.82;;;4.40;99.90;;;;;;5024784;28;20137;-40
2022/01/28 04:51:43;;;;;;;34.08;4.57;;;4.50;99.90;;;;;;5018303;28;20057;-40
2022/01/28 04:54:23;;;;;;;39.85;5.32;;;4.50;99.90;;;;;;5026391;28;20050;-40
2022/01/28 04:56:57;;;;;;;33.55;4.93;;;4.50;99.90;;;;;;5025300;28;20097;-40
2022/01/28 04:59:39;;;;;;;42.17;4.25;;;4.50;99.90;;;;;;5023150;28;20045;-40
2022/01/28 05:08:00;;;;;;;42.95;4.93;;;4.50;99.90;;;;;;5021420;28;20053;-40
2022/01/28 05:10:52;;;;;;;38.13;4.90;;;4.50;99.90;;;;;;5029427;28;20132;-40
2022/01/28 05:16:44;;;;;;;36.17;4.65;;;4.50;99.90;;;;;;5027611;28;20052;-40
2022/01/28 05:27:37;;;;;;;41.05;5.32;;;4.50;99.90;;;;;;5028627;28;20081;-39
2022/01/28 05:30:04;;;;;;;32.28;4.35;;;4.50;99.90;;;;;;5026790;28;20041;-40
2022/01/28 05:32:31;;;;;;;36.60;5.85;;;4.50;99.90;;;;;;5021047;28;20132;-40
2022/01/28 05:34:59;;;;;;;35.30;4.47;;;4.50;99.90;;;;;;5027830;28;20063;-40
2022/01/28 05:37:26;;;;;;;31.58;5.22;;;4.50;99.90;;;;;;5031229;28;20057;-40
2022/01/28 05:39:52;;;;;;;31.42;4.00;;;4.50;99.90;;;;;;5031470;28;20046;-40
2022/01/28 05:42:19;;;;;;;33.72;4.85;;;4.50;99.90;;;;;;5029644;28;20053;-40
2022/01/28 05:44:46;;;;;;;28.30;5.00;;;4.50;99.90;;;;;;5032489;28;20049;-40
2022/01/28 05:47:15;;;;;;;39.42;5.38;;;4.50;99.90;;;;;;5022667;28;20478;-39
2022/01/28 05:49:43;;;;;;;43.92;5.88;;;4.50;99.90;;;;;;5032820;28;20041;-40
2022/01/28 05:52:11;;;;;;;34.85;4.13;;;4.50;99.90;;;;;;5024829;28;20041;-40
2022/01/28 05:54:37;;;;;;;36.60;5.25;;;4.50;99.90;;;;;;5024732;28;20045;-40
2022/01/28 05:57:05;;;;;;;38.15;5.13;;;4.50;99.90;;;;;;5032604;28;20094;-40
2022/01/28 05:59:31;;;;;;;39.60;5.38;;;4.40;99.90;;;;;;5033313;28;20065;-40
2022/01/28 06:01:58;;;;;;;39.05;4.72;;;4.40;99.90;;;;;;5029569;28;20095;-40
2022/01/28 06:04:25;;;;;;;38.28;4.57;;;4.30;99.90;;;;;;5032094;28;20124;-40
2022/01/28 06:06:52;;;;;;;37.63;5.38;;;4.30;99.90;;;;;;5025056;28;20050;-39
2022/01/28 06:09:20;;;;;;;42.33;4.95;;;4.30;99.90;;;;;;5022658;28;20051;-39
2022/01/28 06:11:47;;;;;;;49.70;5.80;;;4.30;99.90;;;;;;5031746;28;20393;-39
2022/01/28 06:14:13;;;;;;;35.60;4.82;;;4.30;99.90;;;;;;5030239;28;20477;-40
2022/01/28 06:16:40;;;;;;;40.50;5.60;;;4.30;99.90;;;;;;5024755;28;20056;-40
2022/01/28 06:19:07;;;;;;;35.38;4.88;;;4.30;99.90;;;;;;5022639;28;20053;-40
2022/01/28 06:21:33;;;;;;;28.60;4.75;;;4.30;99.90;;;;;;5024796;28;20486;-40
2022/01/28 06:24:00;;;;;;;33.65;5.00;;;4.30;99.90;;;;;;5016917;28;20041;-40
2022/01/28 06:26:28;;;;;;;35.88;5.40;;;4.30;99.90;;;;;;5020941;28;20046;-40
2022/01/28 06:28:55;;;;;;;34.60;4.53;;;4.30;99.90;;;;;;5025045;28;20124;-40
2022/01/28 06:31:21;;;;;;;35.60;5.07;;;4.30;99.90;;;;;;5029095;28;20309;-40
2022/01/28 06:33:49;;;;;;;32.78;4.43;;;4.30;99.90;;;;;;5031206;28;20050;-40
2022/01/28 06:36:16;;;;;;;38.22;5.57;;;4.30;99.90;;;;;;5028375;28;20136;-40
2022/01/28 06:38:42;;;;;;;29.27;5.15;;;4.30;99.90;;;;;;5029134;28;20061;-40
2022/01/28 06:41:09;;;;;;;35.88;5.22;;;4.30;99.90;;;;;;5043497;28;20394;-40
2022/01/28 06:43:37;;;;;;;31.40;4.88;;;4.30;99.90;;;;;;5031823;28;20059;-40
2022/01/28 06:46:04;;;;;;;37.60;4.85;;;4.30;99.90;;;;;;5031801;28;20128;-40
2022/01/28 06:48:30;;;;;;;34.53;4.85;;;4.30;99.90;;;;;;5026231;28;20371;-40
2022/01/28 06:50:57;;;;;;;36.45;4.93;;;4.30;99.90;;;;;;5020187;28;20050;-41
2022/01/28 06:53:24;;;;;;;38.47;4.13;;;4.40;99.90;;;;;;5021973;28;20044;-40
2022/01/28 06:55:50;;;;;;;34.28;5.32;;;4.30;99.90;;;;;;4997197;22;20119;-40
2022/01/28 06:58:17;;;;;;;36.63;4.90;;;4.30;99.90;;;;;;5028674;28;20057;-39
2022/01/28 07:00:45;;;;;;;33.13;5.28;;;4.30;99.90;;;;;;5015673;28;20494;-40
2022/01/28 07:03:14;;;;;;;37.22;5.35;;;4.40;99.90;;;;;;5021913;28;20498;-40
2022/01/28 07:05:41;;;;;;;35.80;4.40;;;4.30;99.90;;;;;;5022821;28;20041;-40
2022/01/28 07:08:08;;;;;;;37.28;4.90;;;4.30;99.90;;;;;;5029670;28;20053;-40
2022/01/28 07:10:35;;;;;;;33.97;4.60;;;4.30;99.90;;;;;;5028261;28;20053;-40
2022/01/28 07:13:02;;;;;;;31.17;4.80;;;4.40;99.90;;;;;;5023088;28;20053;-40
2022/01/28 07:15:28;;;;;;;41.83;5.13;;;4.30;99.90;;;;;;5023988;28;20056;-40
2022/01/28 07:17:57;;;;;;;35.92;4.53;;;4.30;99.90;;;;;;5016740;28;20132;-40
2022/01/28 07:20:24;;;;;;;39.40;4.72;;;4.30;99.90;;;;;;5030023;28;20482;-40
2022/01/28 07:22:51;;;;;;;43.95;5.35;;;4.30;99.90;;;;;;5027996;28;20049;-40
2022/01/28 07:25:17;;;;;;;27.10;4.90;;;4.40;99.90;;;;;;5025330;28;20041;-40
2022/01/28 07:27:44;;;;;;;36.42;4.90;;;4.30;99.90;;;;;;5024723;28;20060;-40
2022/01/28 07:30:13;;;;;;;41.35;5.00;;;4.30;99.90;;;;;;5027143;28;20045;-40
2022/01/28 07:32:40;;;;;;;49.75;6.05;;;4.30;99.90;;;;;;5026252;28;20508;-40
2022/01/28 07:35:09;;;;;;;27.35;4.53;;;4.40;99.90;;;;;;5023346;28;20084;-40
2022/01/28 07:37:35;;;;;;;38.40;5.75;;;4.30;99.90;;;;;;5028912;28;20045;-40
2022/01/28 07:40:03;;;;;;;26.52;5.03;;;4.40;99.90;;;;;;5023099;28;20136;-40
2022/01/28 07:42:33;;;;;;;36.53;5.47;;;4.30;99.90;;;;;;5025677;28;20046;-40
2022/01/28 07:45:00;;;;;;;31.67;4.25;;;4.30;99.90;;;;;;5026435;28;20474;-40
2022/01/28 07:47:26;;;;;;;36.08;4.50;;;4.30;99.90;;;;;;5029238;28;20051;-40
2022/01/28 07:49:53;;;;;;;37.70;5.28;;;4.30;99.90;;;;;;5029903;28;20400;-40
2022/01/28 07:52:21;;;;;;;40.67;5.53;;;4.30;99.90;;;;;;5029754;28;20045;-40
2022/01/28 07:54:49;;;;;;;37.30;4.72;;;4.30;99.90;;;;;;5030450;28;20531;-40
2022/01/28 07:57:16;;;;;;;35.60;4.72;;;4.30;99.90;;;;;;5032470;28;20146;-40
2022/01/28 07:59:43;;;;;;;39.60;5.28;;;4.30;99.90;;;;;;5029233;28;20056;-40
2022/01/28 08:02:10;;;;;;;32.83;4.55;;;4.30;99.90;;;;;;5023957;28;20058;-40
2022/01/28 08:04:38;;;;;;;34.58;4.68;;;4.20;99.90;;;;;;5029496;28;20375;-40
2022/01/28 08:07:05;;;;;;;34.20;5.20;;;4.20;99.90;;;;;;5032929;28;20063;-41
2022/01/28 08:09:33;;;;;;;33.53;5.10;;;4.20;99.90;;;;;;5031511;28;20136;-40
2022/01/28 08:11:59;;;;;;;33.08;4.95;;;4.20;99.90;;;;;;5033029;28;20058;-40
2022/01/28 08:14:26;;;;;;;27.90;4.32;;;4.20;99.90;;;;;;5032177;28;20445;-40
2022/01/28 08:16:53;;;;;;;35.50;4.78;;;4.10;99.90;;;;;;5033226;28;20049;-40
2022/01/28 08:19:20;;;;;;;34.28;4.63;;;4.10;99.90;;;;;;5025419;28;20489;-40
2022/01/28 08:21:46;;;;;;;36.97;4.50;;;4.10;99.90;;;;;;5025461;28;20189;-40
2022/01/28 08:24:13;;;;;;;27.00;4.50;;;4.10;99.90;;;;;;5034028;28;20056;-40
2022/01/28 08:26:41;;;;;;;43.10;5.35;;;4.10;99.90;;;;;;5016886;28;20055;-40
2022/01/28 08:29:08;;;;;;;32.38;4.82;;;4.10;99.90;;;;;;5028028;28;20527;-40
2022/01/28 08:31:35;;;;;;;45.45;5.40;;;4.10;99.90;;;;;;5023151;28;20053;-40
2022/01/28 08:34:02;;;;;;;28.58;4.30;;;4.10;99.90;;;;;;5026702;28;20049;-40
2022/01/28 08:36:28;;;;;;;38.13;5.50;;;4.10;99.90;;;;;;5025194;28;20491;-40
2022/01/28 08:38:56;;;;;;;35.28;4.57;;;4.10;99.90;;;;;;5031493;28;20064;-40
2022/01/28 08:41:23;;;;;;;40.92;5.05;;;4.10;99.90;;;;;;5020247;28;20132;-40
2022/01/28 08:43:51;;;;;;;27.60;4.50;;;4.10;99.90;;;;;;5031859;28;20049;-40
2022/01/28 08:46:18;;;;;;;31.65;4.35;;;4.20;99.90;;;;;;5021321;28;20046;-40
2022/01/28 08:48:45;;;;;;;38.92;4.63;;;4.20;99.90;;;;;;5017348;28;20048;-40
2022/01/28 08:51:12;;;;;;;35.40;4.70;;;4.30;99.90;;;;;;5023318;28;20122;-40
2022/01/28 08:53:39;;;;;;;31.33;4.82;;;4.30;99.90;;;;;;5030818;28;20425;-40
2022/01/28 08:56:06;;;;;;;34.92;4.55;;;4.40;99.90;;;;;;5019647;28;20516;-40
2022/01/28 08:58:33;;;;;;;35.28;4.85;;;4.50;99.90;;;;;;5033075;28;20124;-40
2022/01/28 09:01:01;;;;;;;39.65;4.35;;;4.50;99.90;;;;;;5030950;28;20057;-40
2022/01/28 09:03:28;;;;;;;35.50;5.00;;;4.50;99.90;;;;;;5019480;28;20085;-41
2022/01/28 09:05:54;;;;;;;38.45;5.88;;;4.50;99.90;;;;;;5024608;28;20049;-40
2022/01/28 09:08:21;;;;;;;33.00;4.47;;;4.60;99.90;;;;;;5028178;28;20478;-40
2022/01/28 09:10:57;;;;;;;30.63;4.47;;;4.60;99.90;;;;;;5027918;28;20075;-40
2022/01/28 09:13:24;;;;;;;36.60;5.32;;;4.60;99.90;;;;;;5027647;28;20559;-40
2022/01/28 09:15:52;;;;;;;29.38;4.38;;;4.60;99.90;;;;;;5027829;28;20049;-40
2022/01/28 09:18:20;;;;;;;30.20;4.38;;;4.60;99.90;;;;;;5025144;28;20049;-40
2022/01/28 09:20:47;;;;;;;34.42;4.72;;;4.70;99.90;;;;;;5026451;28;20105;-40
2022/01/28 09:23:13;;;;;;;29.65;4.28;;;4.70;99.90;;;;;;5023461;28;20053;-40
2022/01/28 09:25:40;;;;;;;37.45;5.13;;;4.70;99.90;;;;;;5020748;28;20064;-40
2022/01/28 09:28:07;;;;;;;30.23;4.68;;;4.80;99.90;;;;;;5027657;28;20061;-40
2022/01/28 09:30:33;;;;;;;41.78;6.00;;;4.90;99.90;;;;;;5028181;28;20144;-40
2022/01/28 09:33:02;;;;;;;31.77;4.35;;;5.00;99.90;;;;;;5028432;28;20410;-40
2022/01/28 09:35:30;;;;;;;38.28;5.55;;;5.10;99.90;;;;;;5024023;28;20053;-40
2022/01/28 09:37:57;;;;;;;36.22;5.05;;;5.30;99.90;;;;;;5029396;28;20053;-41
2022/01/28 09:40:23;;;;;;;30.75;4.38;;;5.40;99.90;;;;;;5027869;28;20125;-40
2022/01/28 09:42:52;;;;;;;36.53;5.75;;;5.50;99.90;;;;;;5032340;28;20059;-40
2022/01/28 09:45:22;;;;;;;37.75;5.10;;;5.60;99.90;;;;;;5023458;28;20054;-40
2022/01/28 09:47:53;;;;;;;30.25;4.63;;;5.70;99.90;;;;;;5031661;28;20119;-40
2022/01/28 09:50:21;;;;;;;34.33;4.43;;;5.70;99.90;;;;;;5029676;28;20061;-40
2022/01/28 09:52:49;;;;;;;43.00;5.25;;;5.70;99.90;;;;;;5026835;28;20046;-41
2022/01/28 09:55:16;;;;;;;34.88;5.10;;;5.70;99.90;;;;;;5021540;28;20058;-40
2022/01/28 09:57:43;;;;;;;38.95;5.43;;;5.70;99.90;;;;;;5024719;28;20134;-40
2022/01/28 10:00:11;;;;;;;33.92;4.72;;;5.70;99.90;;;;;;5015676;28;20049;-41
2022/01/28 10:02:48;;;;;;;32.85;5.75;;;5.70;99.90;;;;;;5012411;28;20053;-41
2022/01/28 10:05:19;;;;;;;36.35;4.80;;;5.70;99.90;;;;;;5020084;28;20149;-41
2022/01/28 10:08:01;;;;;;;35.28;4.60;;;5.80;99.90;;;;;;5027368;28;20448;-40
2022/01/28 10:10:27;;;;;;;43.35;5.47;;;5.90;99.90;;;;;;5022042;28;20072;-40
2022/01/28 10:13:09;;;;;;;32.25;5.45;;;5.90;99.90;;;;;;5027970;28;20051;-40
2022/01/28 10:15:36;;;;;;;27.88;4.45;;;5.90;99.90;;;;;;5023077;28;20068;-40
2022/01/28 10:18:03;;;;;;;36.28;5.20;;;6.00;99.90;;;;;;5030253;28;20051;-41
2022/01/28 10:20:29;;;;;;;37.50;4.47;;;6.00;99.90;;;;;;5046354;28;20060;-40
2022/01/28 10:22:57;;;;;;;27.17;4.55;;;6.10;99.90;;;;;;5029055;28;20042;-40
2022/01/28 10:25:31;;;;;;;40.20;5.13;;;6.10;99.90;;;;;;5031359;28;20057;-40
2022/01/28 10:27:59;;;;;;;39.75;5.40;;;6.10;99.90;;;;;;5022936;28;20116;-40
2022/01/28 10:30:26;;;;;;;27.38;4.03;;;6.20;99.90;;;;;;5022829;28;20092;-40
2022/01/28 10:33:11;;;;;;;31.45;4.65;;;6.20;99.90;;;;;;5026937;28;20395;-40
2022/01/28 10:35:38;;;;;;;35.22;5.00;;;6.20;99.90;;;;;;5021804;28;20049;-41
2022/01/28 10:38:07;;;;;;;29.35;5.40;;;6.30;99.90;;;;;;5027998;28;20140;-40
2022/01/28 10:40:35;;;;;;;32.47;4.93;;;6.30;99.90;;;;;;5022684;28;20464;-40
2022/01/28 10:43:02;;;;;;;31.63;6.22;;;6.30;99.90;;;;;;5023294;28;20100;-40
2022/01/28 10:45:31;;;;;;;38.08;4.97;;;6.40;99.90;;;;;;5025501;28;20552;-40
2022/01/28 10:47:58;;;;;;;36.03;5.22;;;6.40;99.90;;;;;;5027146;28;20053;-41
2022/01/28 10:50:26;;;;;;;35.38;4.75;;;6.50;99.90;;;;;;5022529;28;20053;-41
2022/01/28 10:53:05;;;;;;;31.00;5.05;;;6.60;99.90;;;;;;5021791;28;20077;-41
2022/01/28 10:55:32;;;;;;;40.25;5.18;;;6.60;99.90;;;;;;5020070;28;20050;-40
2022/01/28 10:58:02;;;;;;;35.28;5.40;;;6.70;99.90;;;;;;5019881;28;20397;-41
2022/01/28 11:00:29;;;;;;;34.08;5.05;;;6.70;99.90;;;;;;5027130;28;20045;-40
2022/01/28 11:02:58;;;;;;;44.33;5.05;;;6.80;99.90;;;;;;5028423;28;20120;-40
2022/01/28 11:05:25;;;;;;;33.22;4.60;;;6.80;99.90;;;;;;5021653;28;20088;-41
2022/01/28 11:07:52;;;;;;;34.03;4.97;;;6.80;99.90;;;;;;5025002;28;20148;-41
2022/01/28 11:10:18;;;;;;;27.27;4.85;;;6.80;99.90;;;;;;5016766;28;20049;-40
2022/01/28 11:12:45;;;;;;;36.45;4.85;;;6.80;99.90;;;;;;5021285;28;20367;-41
2022/01/28 11:15:13;;;;;;;38.08;5.15;;;6.90;99.90;;;;;;5017356;28;20052;-41
2022/01/28 11:17:40;;;;;;;34.28;5.53;;;6.90;99.90;;;;;;5025670;28;20124;-41
2022/01/28 11:20:08;;;;;;;39.22;5.25;;;6.90;99.90;;;;;;5021635;28;20474;-41
2022/01/28 11:22:45;;;;;;;41.08;5.22;;;7.00;99.90;;;;;;5021678;28;20049;-41
2022/01/28 11:25:35;;;;;;;32.33;4.18;;;7.00;99.90;;;;;;5029642;28;20440;-41
2022/01/28 11:28:06;;;;;;;38.30;4.32;;;7.10;99.90;;;;;;5014971;28;20405;-41
2022/01/28 11:30:34;;;;;;;24.37;4.57;;;7.00;99.90;;;;;;5020482;28;20042;-41
2022/01/28 11:33:02;;;;;;;43.30;4.80;;;7.10;99.90;;;;;;5024236;28;20051;-42
2022/01/28 11:35:30;;;;;;;38.65;5.90;;;7.10;99.90;;;;;;5020856;28;20478;-40
2022/01/28 11:38:03;;;;;;;34.08;5.28;;;7.20;99.80;;;;;;5023694;28;20050;-41
2022/01/28 11:40:41;;;;;;;32.80;4.63;;;7.20;99.40;;;;;;5028578;28;20053;-40
2022/01/28 11:43:18;;;;;;;35.35;5.00;;;7.30;99.30;;;;;;5022155;28;20072;-41
2022/01/28 11:45:46;;;;;;;37.50;5.15;;;7.30;99.00;;;;;;5024430;28;20548;-41
2022/01/28 11:48:13;;;;;;;35.20;4.97;;;7.30;99.30;;;;;;5028823;28;20046;-42
2022/01/28 11:50:39;;;;;;;35.33;4.90;;;7.40;99.30;;;;;;5026323;28;20060;-41
2022/01/28 11:53:21;;;;;;;31.40;4.47;;;7.40;99.00;;;;;;5026904;28;20057;-41
2022/01/28 11:56:00;;;;;;;29.35;4.30;;;7.40;98.50;;;;;;5025929;28;20057;-41
2022/01/28 11:58:51;;;;;;;33.42;4.70;;;7.40;98.60;;;;;;5018419;28;20132;-41
2022/01/28 12:01:23;;;;;;;29.40;4.60;;;7.40;98.10;;;;;;5030092;28;20050;-41
2022/01/28 12:03:50;;;;;;;34.53;4.95;;;7.40;98.50;;;;;;5025236;28;20477;-41
2022/01/28 12:06:18;;;;;;;30.58;4.70;;;7.40;98.40;;;;;;5024480;28;20089;-41
2022/01/28 12:08:45;;;;;;;25.75;3.72;;;7.40;98.50;;;;;;5029356;28;20060;-40
2022/01/28 12:11:13;;;;;;;23.42;3.78;;;7.40;98.30;;;;;;5024409;28;20057;-40
2022/01/28 12:13:54;;;;;;;29.65;3.95;;;7.30;98.20;;;;;;5024475;28;20060;-41
2022/01/28 12:16:30;;;;;;;26.23;3.95;;;7.40;97.90;;;;;;5020521;28;20050;-41
2022/01/28 12:18:57;;;;;;;36.42;3.95;;;7.40;97.90;;;;;;5030161;28;20103;-42
2022/01/28 12:21:25;;;;;;;22.17;4.03;;;7.40;97.80;;;;;;5017744;28;20145;-41
2022/01/28 12:23:53;;;;;;;21.75;3.80;;;7.50;97.60;;;;;;5018821;28;20050;-41
2022/01/28 12:26:20;;;;;;;25.40;4.25;;;7.60;97.80;;;;;;5025003;28;20053;-41
2022/01/28 12:28:57;;;;;;;28.77;4.07;;;7.70;97.20;;;;;;5021541;28;20141;-41
2022/01/28 12:31:30;;;;;;;32.05;4.63;;;7.70;96.80;;;;;;5025404;28;20129;-41
2022/01/28 12:33:59;;;;;;;33.47;4.40;;;7.70;96.70;;;;;;5021306;28;20049;-41
2022/01/28 12:36:27;;;;;;;28.38;4.53;;;7.80;96.70;;;;;;5023217;28;20223;-41
2022/01/28 12:39:06;;;;;;;32.30;3.90;;;7.80;96.60;;;;;;5023667;28;20053;-41
2022/01/28 12:41:41;;;;;;;29.23;4.80;;;7.80;96.20;;;;;;5023157;28;20385;-41
2022/01/28 12:44:08;;;;;;;29.58;4.53;;;7.90;96.00;;;;;;5025839;28;20134;-42
2022/01/28 12:46:37;;;;;;;28.52;3.75;;;7.90;95.60;;;;;;5021260;28;20065;-41
2022/01/28 12:49:04;;;;;;;31.50;3.95;;;7.90;95.40;;;;;;5025208;28;20042;-43
2022/01/28 12:51:30;;;;;;;32.33;3.55;;;8.00;95.60;;;;;;5019884;28;20481;-43
2022/01/28 12:53:57;;;;;;;28.10;4.13;;;8.00;95.10;;;;;;5028513;28;20084;-42
2022/01/28 12:56:31;;;;;;;32.28;4.65;;;8.00;94.80;;;;;;5027634;28;20092;-42
2022/01/28 12:58:57;;;;;;;30.48;4.03;;;8.10;94.50;;;;;;5032036;28;20229;-42
2022/01/28 13:01:24;;;;;;;23.27;3.90;;;8.10;94.90;;;;;;5030498;28;20508;-42
2022/01/28 13:04:03;;;;;;;27.73;3.70;;;8.20;95.00;;;;;;5029284;28;20068;-43
2022/01/28 13:06:42;;;;;;;31.60;4.43;;;8.20;95.00;;;;;;5031428;28;20057;-44
2022/01/28 13:09:12;;;;;;;31.75;3.92;;;8.20;95.30;;;;;;5024741;28;20423;-41
2022/01/28 13:11:41;;;;;;;29.88;3.88;;;8.30;95.10;;;;;;5026552;28;20049;-44
2022/01/28 13:14:08;;;;;;;36.78;4.13;;;8.30;95.10;;;;;;5032188;28;20053;-42
2022/01/28 13:16:36;;;;;;;21.35;4.10;;;8.30;95.00;;;;;;5032319;28;20060;-43
2022/01/28 13:19:04;;;;;;;30.38;4.35;;;8.30;94.90;;;;;;5022545;28;20057;-42
2022/01/28 13:21:31;;;;;;;25.45;4.53;;;8.30;94.80;;;;;;5019637;28;20042;-42
2022/01/28 13:24:12;;;;;;;30.95;4.22;;;8.10;95.00;;;;;;5024599;28;20401;-42
2022/01/28 13:26:55;;;;;;;39.03;4.37;;;8.10;95.00;;;;;;5025923;28;20061;-41
2022/01/28 13:29:30;;;;;;;30.95;3.65;;;8.10;95.30;;;;;;5025686;28;20320;-43
2022/01/28 13:31:58;;;;;;;33.40;4.30;;;8.00;95.80;;;;;;5028199;28;20064;-41
2022/01/28 13:34:26;;;;;;;31.70;3.97;;;8.10;96.10;;;;;;5028510;28;20076;-41
2022/01/28 13:36:53;;;;;;;27.92;3.95;;;8.10;96.00;;;;;;5023933;28;20041;-42
2022/01/28 13:39:22;;;;;;;24.60;4.05;;;8.10;96.10;;;;;;5020766;28;20049;-43
2022/01/28 13:41:51;;;;;;;32.47;4.30;;;8.10;96.10;;;;;;5028084;28;20129;-42
2022/01/28 13:44:25;;;;;;;31.25;3.75;;;8.00;96.00;;;;;;5043425;28;20136;-42
2022/01/28 13:46:56;;;;;;;28.90;3.65;;;8.00;95.70;;;;;;5023932;28;20044;-42
2022/01/28 13:49:29;;;;;;;29.77;3.83;;;8.00;96.20;;;;;;5025627;28;20068;-41